Time;durP1;ratioP1;P1;durP2;ratioP2;P2;SDS_P1;SDS_P2;PMS_P1;PMS_P2;Temp;Humidity;BMP_temperature;BMP_pressure;BME280_temperature;BME280_humidity;BME280_pressure;Samples;Min_cycle;Max_cycle;Signal;HPM_P1;HPM_P2
2023/03/25 00:01:48;;;;;;;9.17;3.33;;;;;;;8.49;93.73;100080.59;5262170;28;20127;-69
2023/03/25 00:04:20;;;;;;;8.87;2.80;;;;;;;8.50;93.11;100077.97;5262672;28;20052;-67
2023/03/25 00:06:54;;;;;;;12.27;3.07;;;;;;;8.49;93.21;100072.78;5262721;28;20053;-67
2023/03/25 00:09:26;;;;;;;8.23;2.67;;;;;;;8.50;93.04;100087.47;5261378;28;20033;-66
2023/03/25 00:11:58;;;;;;;12.30;3.53;;;;;;;8.44;93.26;100085.84;5263133;28;20112;-66
2023/03/25 00:14:31;;;;;;;6.77;2.70;;;;;;;8.40;93.67;100084.13;5262900;28;20049;-67
2023/03/25 00:17:03;;;;;;;11.45;2.63;;;;;;;8.35;93.59;100079.00;5262880;28;20033;-67
2023/03/25 00:19:34;;;;;;;8.07;2.97;;;;;;;8.46;92.82;100085.81;5245297;28;20036;-68
2023/03/25 00:22:06;;;;;;;9.50;3.60;;;;;;;8.41;93.21;100083.25;5262454;28;20064;-68
2023/03/25 00:24:37;;;;;;;13.20;4.37;;;;;;;8.43;92.02;100078.91;5261351;28;20036;-67
2023/03/25 00:27:09;;;;;;;6.43;2.33;;;;;;;8.48;91.42;100076.25;5262241;28;20028;-68
2023/03/25 00:29:43;;;;;;;8.30;2.43;;;;;;;8.38;91.83;100072.91;5262432;28;20029;-67
2023/03/25 00:32:14;;;;;;;8.32;2.60;;;;;;;8.34;91.98;100074.69;5262364;28;20544;-67
2023/03/25 00:34:46;;;;;;;6.17;2.17;;;;;;;8.33;91.87;100067.78;5262411;28;20107;-69
2023/03/25 00:37:20;;;;;;;10.43;3.23;;;;;;;8.35;91.49;100063.41;5265945;28;20033;-68
2023/03/25 00:39:51;;;;;;;8.57;2.60;;;;;;;8.35;91.32;100058.22;5266353;28;20029;-68
2023/03/25 00:42:26;;;;;;;9.97;2.90;;;;;;;8.36;91.10;100070.34;5266187;28;20036;-68
2023/03/25 00:44:57;;;;;;;14.75;3.38;;;;;;;8.33;91.45;100069.53;5266396;28;20048;-68
2023/03/25 00:47:30;;;;;;;11.27;2.63;;;;;;;8.35;90.63;100073.81;5248890;28;20124;-67
2023/03/25 00:50:02;;;;;;;8.55;2.65;;;;;;;8.30;91.17;100073.03;5267095;28;20487;-68
2023/03/25 00:52:34;;;;;;;9.68;3.08;;;;;;;8.29;91.54;100062.66;5266211;28;20029;-68
2023/03/25 00:55:06;;;;;;;10.50;2.50;;;;;;;8.29;91.47;100066.13;5266221;28;20053;-68
2023/03/25 00:57:38;;;;;;;9.00;3.30;;;;;;;8.30;91.23;100065.22;5266225;28;20025;-68
2023/03/25 01:00:13;;;;;;;8.23;2.73;;;;;;;8.36;90.74;100069.50;5266616;28;20052;-67
2023/03/25 01:02:44;;;;;;;10.90;2.25;;;;;;;8.30;91.31;100086.00;5266348;28;20384;-68
2023/03/25 01:05:16;;;;;;;7.80;2.10;;;;;;;8.31;91.11;100056.56;5265904;28;20027;-68
2023/03/25 01:07:48;;;;;;;11.30;2.57;;;;;;;8.22;91.84;100057.56;5265643;28;20037;-69
2023/03/25 01:10:20;;;;;;;9.40;2.83;;;;;;;8.17;91.79;100064.56;5264610;28;20374;-71
2023/03/25 01:12:51;;;;;;;9.23;2.37;;;;;;;8.14;92.17;100064.59;5264574;28;20036;-68
2023/03/25 01:15:22;;;;;;;6.30;2.13;;;;;;;8.19;91.62;100067.13;5265927;28;20037;-68
2023/03/25 01:17:54;;;;;;;6.30;2.27;;;;;;;8.15;92.71;100055.09;5265766;28;20091;-68
2023/03/25 01:20:25;;;;;;;6.47;2.07;;;;;;;8.17;92.43;100074.09;5264506;28;20051;-68
2023/03/25 01:22:57;;;;;;;7.80;2.47;;;;;;;8.14;92.43;100062.00;5265947;28;20037;-67
2023/03/25 01:25:28;;;;;;;9.90;2.20;;;;;;;8.11;92.77;100056.84;5265339;28;20051;-68
2023/03/25 01:28:00;;;;;;;4.67;1.87;;;;;;;8.07;92.81;100075.97;5265369;28;20477;-67
2023/03/25 01:30:31;;;;;;;7.33;2.10;;;;;;;8.10;92.53;100078.50;5265503;28;20094;-67
2023/03/25 01:33:03;;;;;;;8.73;2.37;;;;;;;8.00;93.51;100059.63;5247820;28;20120;-68
2023/03/25 01:35:34;;;;;;;6.67;2.53;;;;;;;7.94;93.52;100064.88;5265738;28;20025;-67
2023/03/25 01:38:05;;;;;;;6.23;2.20;;;;;;;7.94;93.84;100069.22;5265377;28;20033;-68
2023/03/25 01:40:37;;;;;;;3.80;1.97;;;;;;;7.97;93.96;100069.16;5263909;28;20119;-66
2023/03/25 01:43:12;;;;;;;7.17;2.30;;;;;;;7.98;93.84;100069.13;5265587;28;20031;-68
2023/03/25 01:45:44;;;;;;;8.93;2.60;;;;;;;7.90;94.69;100070.97;5265249;28;20033;-68
2023/03/25 01:48:36;;;;;;;7.38;2.80;;;;;;;7.90;94.41;100070.97;5264641;28;20033;-68
2023/03/25 01:51:19;;;;;;;8.18;2.78;;;;;;;7.94;94.72;100059.69;5265275;28;20063;-68
2023/03/25 01:53:54;;;;;;;13.10;2.40;;;;;;;7.88;94.52;100057.19;5266291;28;20024;-67
2023/03/25 01:56:30;;;;;;;11.20;1.85;;;;;;;7.92;93.47;100063.19;5265353;28;20057;-67
2023/03/25 01:59:04;;;;;;;4.97;1.80;;;;;;;7.91;94.14;100057.13;5265145;28;20380;-68
2023/03/25 02:01:36;;;;;;;8.63;2.03;;;;;;;7.89;94.24;100058.91;5264328;28;20186;-67
2023/03/25 02:04:10;;;;;;;7.07;2.13;;;;;;;7.94;93.54;100054.50;5264841;28;20532;-67
2023/03/25 02:06:45;;;;;;;6.55;2.03;;;;;;;7.90;94.09;100064.94;5264494;28;20033;-69
2023/03/25 02:09:20;;;;;;;5.97;1.98;;;;;;;7.88;94.23;100066.72;5264779;28;20064;-69
2023/03/25 02:11:53;;;;;;;7.60;2.13;;;;;;;7.88;94.44;100061.53;5264782;28;20029;-68
2023/03/25 02:14:29;;;;;;;5.40;1.85;;;;;;;7.77;95.83;100053.88;5264658;28;20032;-67
2023/03/25 02:17:17;;;;;;;5.95;1.90;;;;;;;7.76;96.43;100046.94;5264939;28;20510;-67
2023/03/25 02:20:10;;;;;;;8.15;2.28;;;;;;;7.78;96.34;100042.63;5264607;28;20326;-68
2023/03/25 02:23:11;;;;;;;5.50;2.15;;;;;;;7.83;95.25;100046.84;5264092;28;20040;-68
2023/03/25 02:26:16;;;;;;;9.02;1.67;;;;;;;7.90;95.07;100045.03;5246966;28;20040;-68
2023/03/25 02:29:14;;;;;;;7.90;2.13;;;;;;;7.91;94.40;100043.31;5264443;28;20082;-67
2023/03/25 02:32:07;;;;;;;7.32;2.38;;;;;;;7.95;94.70;100044.97;5258119;28;20399;-67
2023/03/25 02:35:03;;;;;;;5.28;1.95;;;;;;;7.82;95.91;100062.44;5264344;28;20465;-68
2023/03/25 02:37:47;;;;;;;9.55;2.92;;;;;;;7.82;95.69;100046.88;5264169;28;20032;-68
2023/03/25 02:40:24;;;;;;;7.82;2.30;;;;;;;7.85;95.68;100054.63;5264088;28;20036;-68
2023/03/25 02:43:17;;;;;;;7.30;2.40;;;;;;;7.81;96.77;100053.81;5265084;28;20033;-69
2023/03/25 02:45:53;;;;;;;5.05;2.10;;;;;;;7.60;98.22;100047.16;5264308;28;20035;-68
2023/03/25 02:48:34;;;;;;;8.27;2.60;;;;;;;7.62;98.65;100048.00;5263857;28;20036;-68
2023/03/25 02:51:13;;;;;;;9.23;2.25;;;;;;;7.61;99.74;100058.38;5264000;28;20033;-68
2023/03/25 02:53:47;;;;;;;6.35;1.88;;;;;;;7.36;100.00;100044.84;5264214;28;20158;-69
2023/03/25 02:56:24;;;;;;;10.50;2.88;;;;;;;7.20;100.00;100036.41;5263889;28;20032;-68
2023/03/25 02:58:56;;;;;;;10.40;2.95;;;;;;;7.10;100.00;100035.66;5263710;28;20143;-67
2023/03/25 03:01:27;;;;;;;9.25;2.72;;;;;;;7.01;100.00;100033.16;5245496;28;20140;-68
2023/03/25 03:03:59;;;;;;;9.20;2.90;;;;;;;6.99;100.00;100037.47;5263428;28;20049;-68
2023/03/25 03:06:34;;;;;;;12.47;2.43;;;;;;;7.11;100.00;100039.94;5263684;28;20389;-67
2023/03/25 03:09:14;;;;;;;9.45;2.80;;;;;;;7.10;100.00;100041.69;5263608;28;20106;-68
2023/03/25 03:11:46;;;;;;;13.38;3.08;;;;;;;7.15;100.00;100020.91;5263528;28;20033;-69
2023/03/25 03:14:35;;;;;;;11.63;3.00;;;;;;;7.23;100.00;100025.97;5263273;28;20036;-68
2023/03/25 03:17:18;;;;;;;7.95;2.78;;;;;;;7.09;100.00;100027.00;5263643;28;20041;-68
2023/03/25 03:20:05;;;;;;;;;;;;;;;7.04;100.00;100017.56;5264024;28;20029;-67
2023/03/25 03:22:51;;;;;;;11.75;2.75;;;;;;;7.00;100.00;100019.31;5264179;28;20011;-67
2023/03/25 03:25:31;;;;;;;11.30;3.10;;;;;;;6.95;100.00;100026.28;5245953;28;20075;-67
2023/03/25 03:28:15;;;;;;;14.52;3.50;;;;;;;6.97;100.00;100023.69;5263271;28;20541;-67
2023/03/25 03:31:05;;;;;;;7.85;2.55;;;;;;;6.97;100.00;100034.03;5261948;28;20029;-67
2023/03/25 03:33:52;;;;;;;10.52;3.25;;;;;;;7.05;100.00;100025.31;5263399;28;20056;-67
2023/03/25 03:36:29;;;;;;;10.65;2.95;;;;;;;7.04;100.00;100033.13;5263372;28;20452;-67
2023/03/25 03:39:21;;;;;;;8.40;2.70;;;;;;;7.16;100.00;100014.81;5261851;28;20078;-66
2023/03/25 03:41:58;;;;;;;10.60;2.80;;;;;;;7.39;100.00;100027.53;5263213;28;20033;-67
2023/03/25 03:44:34;;;;;;;12.10;2.55;;;;;;;7.48;100.00;100027.41;5263258;28;20028;-67
2023/03/25 03:47:11;;;;;;;11.13;3.05;;;;;;;7.56;100.00;100035.09;5263258;28;20025;-68
2023/03/25 03:49:50;;;;;;;9.77;3.42;;;;;;;7.46;100.00;100029.16;5263506;28;20115;-67
2023/03/25 03:52:29;;;;;;;10.27;2.75;;;;;;;7.25;100.00;100027.69;5263188;28;20031;-68
2023/03/25 03:55:09;;;;;;;18.48;3.53;;;;;;;7.15;100.00;100015.72;5263459;28;20090;-68
2023/03/25 03:57:46;;;;;;;10.45;3.35;;;;;;;7.22;100.00;100024.28;5262889;28;20500;-67
2023/03/25 04:00:25;;;;;;;7.72;2.50;;;;;;;7.20;100.00;100051.97;5262715;28;20091;-68
2023/03/25 04:03:05;;;;;;;12.55;3.78;;;;;;;7.28;100.00;100029.41;5262387;28;20511;-68
2023/03/25 04:05:39;;;;;;;9.25;2.83;;;;;;;7.37;100.00;100037.06;5262698;28;20029;-68
2023/03/25 04:08:20;;;;;;;13.75;2.88;;;;;;;7.41;100.00;100050.88;5262882;28;20025;-68
2023/03/25 04:11:00;;;;;;;8.52;2.72;;;;;;;7.40;100.00;100026.66;5261992;28;20033;-68
2023/03/25 04:13:35;;;;;;;18.60;3.55;;;;;;;7.40;100.00;100029.25;5261261;28;20095;-67
2023/03/25 04:16:07;;;;;;;10.52;2.80;;;;;;;7.41;100.00;100028.38;5262917;28;20033;-67
2023/03/25 04:18:39;;;;;;;8.77;2.20;;;;;;;7.38;100.00;100023.22;5262511;28;20120;-68
2023/03/25 04:21:14;;;;;;;9.47;2.97;;;;;;;7.39;100.00;100037.03;5262872;28;20433;-66
2023/03/25 04:23:45;;;;;;;14.23;3.63;;;;;;;7.34;100.00;100023.28;5262453;28;20036;-67
2023/03/25 04:26:17;;;;;;;8.30;3.00;;;;;;;7.40;100.00;100026.66;5262238;28;20453;-66
2023/03/25 04:28:48;;;;;;;8.82;2.28;;;;;;;7.39;100.00;100026.66;5263067;28;20029;-68
2023/03/25 04:31:20;;;;;;;6.67;2.00;;;;;;;7.40;100.00;100018.88;5262148;28;20464;-67
2023/03/25 04:33:51;;;;;;;8.37;2.27;;;;;;;7.40;100.00;100030.97;5262446;28;20033;-67
2023/03/25 04:36:27;;;;;;;12.57;4.07;;;;;;;7.43;100.00;100026.63;5262677;28;20098;-67
2023/03/25 04:38:58;;;;;;;8.50;2.65;;;;;;;7.35;100.00;100018.06;5261919;28;20029;-68
2023/03/25 04:41:30;;;;;;;10.30;2.63;;;;;;;7.42;100.00;100062.94;5262422;28;20078;-67
2023/03/25 04:44:06;;;;;;;8.53;2.80;;;;;;;7.38;100.00;100030.16;5262358;28;20031;-67
2023/03/25 04:46:37;;;;;;;12.35;2.53;;;;;;;7.19;100.00;100040.72;5262554;28;20271;-67
2023/03/25 04:49:18;;;;;;;11.50;3.33;;;;;;;7.25;100.00;100047.56;5244430;28;20044;-67
2023/03/25 04:51:51;;;;;;;10.00;2.78;;;;;;;7.25;100.00;100030.28;5263164;28;20397;-67
2023/03/25 04:54:22;;;;;;;10.88;3.10;;;;;;;7.22;100.00;100026.88;5261227;28;20040;-67
2023/03/25 04:56:54;;;;;;;8.30;2.70;;;;;;;7.22;100.00;100032.91;5262236;28;20472;-67
2023/03/25 04:59:25;;;;;;;8.50;3.30;;;;;;;7.25;100.00;100027.69;5262045;28;20025;-67
2023/03/25 05:01:57;;;;;;;10.27;2.53;;;;;;;7.23;100.00;100038.94;5262257;28;20045;-67
2023/03/25 05:04:28;;;;;;;9.47;2.50;;;;;;;7.29;100.00;100029.38;5244366;28;20028;-68
2023/03/25 05:07:00;;;;;;;10.13;3.30;;;;;;;7.31;100.00;100024.19;5244815;28;20479;-67
2023/03/25 05:09:31;;;;;;;9.13;2.73;;;;;;;7.29;100.00;100031.09;5262102;28;20048;-67
2023/03/25 05:12:03;;;;;;;8.10;2.53;;;;;;;7.06;100.00;100023.59;5262606;28;20037;-67
2023/03/25 05:14:34;;;;;;;9.87;3.00;;;;;;;6.84;100.00;100018.63;5261136;28;20021;-68
2023/03/25 05:17:05;;;;;;;12.30;3.20;;;;;;;6.80;100.00;100032.47;5244169;28;20036;-67
2023/03/25 05:19:37;;;;;;;10.07;3.70;;;;;;;6.66;100.00;100030.00;5244047;28;20560;-68
2023/03/25 05:22:09;;;;;;;10.30;2.80;;;;;;;6.69;100.00;100017.03;5263161;28;20362;-66
2023/03/25 05:24:43;;;;;;;14.45;3.45;;;;;;;6.65;100.00;100035.19;5264370;28;20029;-66
2023/03/25 05:27:18;;;;;;;9.65;3.17;;;;;;;6.71;100.00;100038.63;5265609;28;20033;-67
2023/03/25 05:29:50;;;;;;;8.75;3.08;;;;;;;6.67;100.00;100038.66;5265231;28;20060;-67
2023/03/25 05:32:23;;;;;;;13.80;3.30;;;;;;;6.66;100.00;100060.22;5265554;28;20435;-67
2023/03/25 05:34:58;;;;;;;8.20;2.70;;;;;;;6.82;100.00;100059.22;5266027;28;20029;-66
2023/03/25 05:37:30;;;;;;;7.88;2.72;;;;;;;6.81;100.00;100054.06;5265450;28;20094;-67
2023/03/25 05:40:02;;;;;;;11.15;3.53;;;;;;;6.92;100.00;100047.03;5265282;28;20037;-67
2023/03/25 05:42:34;;;;;;;7.07;3.10;;;;;;;6.90;100.00;100041.03;5265667;28;20037;-68
2023/03/25 05:45:06;;;;;;;11.20;2.60;;;;;;;6.92;100.00;100045.31;5265497;28;20043;-66
2023/03/25 05:47:37;;;;;;;10.43;4.63;;;;;;;7.02;100.00;100046.09;5265042;28;20040;-66
2023/03/25 05:50:09;;;;;;;9.60;2.63;;;;;;;7.06;100.00;100055.53;5264713;28;20199;-67
2023/03/25 05:52:40;;;;;;;10.23;2.30;;;;;;;7.09;100.00;100049.47;5264115;28;20029;-68
2023/03/25 05:55:15;;;;;;;7.70;2.67;;;;;;;7.12;100.00;100058.06;5264840;28;20041;-67
2023/03/25 05:57:47;;;;;;;12.07;3.22;;;;;;;7.14;100.00;100059.78;5264763;28;20029;-67
2023/03/25 06:00:23;;;;;;;11.25;2.58;;;;;;;7.14;100.00;100060.66;5264796;28;20052;-68
2023/03/25 06:02:54;;;;;;;12.00;2.80;;;;;;;7.18;100.00;100079.59;5265139;28;20476;-67
2023/03/25 06:05:28;;;;;;;8.23;2.97;;;;;;;7.15;100.00;100072.75;5264944;28;20095;-67
2023/03/25 06:08:00;;;;;;;11.43;2.47;;;;;;;7.19;100.00;100070.97;5264760;28;20071;-67
2023/03/25 06:10:32;;;;;;;11.02;3.10;;;;;;;7.16;100.00;100076.19;5265080;28;20106;-67
2023/03/25 06:13:03;;;;;;;7.20;3.20;;;;;;;7.19;100.00;100092.56;5264803;28;20465;-67
2023/03/25 06:15:38;;;;;;;7.77;3.03;;;;;;;7.25;99.59;100087.31;5264682;28;20029;-67
2023/03/25 06:18:09;;;;;;;9.27;2.75;;;;;;;7.25;99.52;100071.75;5264000;28;20033;-68
2023/03/25 06:20:41;;;;;;;9.90;3.10;;;;;;;7.30;98.59;100095.91;5264631;28;20040;-67
2023/03/25 06:23:12;;;;;;;12.40;3.30;;;;;;;7.29;98.23;100081.22;5263894;28;20036;-67
2023/03/25 06:25:44;;;;;;;13.40;3.20;;;;;;;7.35;97.74;100089.81;5263463;28;20025;-68
2023/03/25 06:28:17;;;;;;;10.00;2.50;;;;;;;7.36;97.48;100079.44;5264450;28;20381;-67
2023/03/25 06:30:49;;;;;;;11.65;3.03;;;;;;;7.40;97.01;100080.25;5264280;28;20095;-68
2023/03/25 06:33:20;;;;;;;12.10;3.23;;;;;;;7.45;95.87;100084.53;5264313;28;20476;-67
2023/03/25 06:35:52;;;;;;;13.40;4.60;;;;;;;7.49;95.43;100074.97;5264539;28;20041;-67
2023/03/25 06:38:25;;;;;;;10.43;3.33;;;;;;;7.58;94.39;100080.06;5263923;28;20381;-66
2023/03/25 06:40:56;;;;;;;9.73;2.40;;;;;;;7.58;94.77;100076.56;5264117;28;20029;-68
2023/03/25 06:43:27;;;;;;;12.37;3.37;;;;;;;7.62;94.01;100089.50;5264252;28;20052;-68
2023/03/25 06:45:59;;;;;;;11.63;2.80;;;;;;;7.68;93.68;100088.59;5263417;28;20025;-67
2023/03/25 06:48:31;;;;;;;18.77;4.50;;;;;;;7.77;93.41;100085.84;5264088;28;20076;-68
2023/03/25 06:51:02;;;;;;;10.33;3.93;;;;;;;7.88;92.54;100097.84;5264045;28;20044;-67
2023/03/25 06:53:33;;;;;;;11.97;2.73;;;;;;;7.96;92.65;100102.06;5264357;28;20040;-68
2023/03/25 06:56:05;;;;;;;12.70;3.13;;;;;;;8.01;92.83;100102.00;5263595;28;20024;-68
2023/03/25 06:58:37;;;;;;;13.67;4.57;;;;;;;7.99;91.36;100102.00;5264085;28;20376;-68
2023/03/25 07:01:08;;;;;;;11.23;3.53;;;;;;;8.02;92.57;100106.31;5263384;28;20043;-68
2023/03/25 07:03:40;;;;;;;13.63;3.87;;;;;;;8.12;92.02;100110.50;5246049;28;20049;-68
2023/03/25 07:06:20;;;;;;;13.20;3.37;;;;;;;8.14;92.14;100100.94;5246654;28;20033;-68
2023/03/25 07:08:51;;;;;;;11.55;3.97;;;;;;;8.04;92.35;100113.19;5264251;28;20086;-68
2023/03/25 07:11:27;;;;;;;13.10;3.23;;;;;;;8.08;93.66;100102.75;5263922;28;20140;-68
2023/03/25 07:13:59;;;;;;;15.55;5.03;;;;;;;8.10;92.21;100108.78;5263267;28;20020;-68
2023/03/25 07:16:30;;;;;;;12.37;4.17;;;;;;;8.25;92.84;100110.34;5263206;28;20024;-68
2023/03/25 07:19:01;;;;;;;14.17;3.90;;;;;;;8.34;92.37;100095.47;5263444;28;20112;-68
2023/03/25 07:21:33;;;;;;;10.57;3.30;;;;;;;8.27;92.22;100106.81;5263588;28;20060;-68
2023/03/25 07:24:04;;;;;;;18.60;4.47;;;;;;;7.88;97.28;100092.66;5229551;28;20029;-68
2023/03/25 07:26:36;;;;;;;18.37;3.73;;;;;;;7.56;100.00;100102.53;5244992;28;20033;-68
2023/03/25 07:29:07;;;;;;;16.77;4.17;;;;;;;7.41;100.00;100100.13;5262051;28;20113;-68
2023/03/25 07:31:39;;;;;;;21.70;4.23;;;;;;;7.37;100.00;100098.44;5263112;28;20120;-68
2023/03/25 07:34:11;;;;;;;10.85;3.63;;;;;;;7.23;100.00;100106.34;5245343;28;20061;-68
2023/03/25 07:36:42;;;;;;;19.33;4.67;;;;;;;7.20;100.00;100104.66;5263062;28;20083;-68
2023/03/25 07:39:14;;;;;;;13.20;3.27;;;;;;;7.17;100.00;100127.16;5262784;28;20089;-68
2023/03/25 07:41:46;;;;;;;19.93;4.43;;;;;;;7.12;100.00;100122.00;5262901;28;20099;-68
2023/03/25 07:44:19;;;;;;;15.20;4.37;;;;;;;7.14;100.00;100125.44;5262680;28;20480;-68
2023/03/25 07:46:50;;;;;;;15.40;4.03;;;;;;;7.18;100.00;100113.31;5262883;28;20124;-68
2023/03/25 07:49:22;;;;;;;16.00;3.37;;;;;;;7.12;100.00;100122.00;5263503;28;20135;-68
2023/03/25 07:51:53;;;;;;;17.10;5.07;;;;;;;7.23;100.00;100124.47;5263349;28;20040;-68
2023/03/25 07:54:25;;;;;;;17.30;4.23;;;;;;;7.24;100.00;100124.47;5261523;28;20063;-67
2023/03/25 07:56:56;;;;;;;16.03;3.70;;;;;;;7.26;100.00;100127.94;5263700;28;20029;-67
2023/03/25 07:59:27;;;;;;;18.73;5.77;;;;;;;7.38;100.00;100115.72;5263134;28;20429;-67
2023/03/25 08:01:59;;;;;;;16.03;4.17;;;;;;;7.52;100.00;100126.81;5262585;28;20485;-68
2023/03/25 08:04:30;;;;;;;16.77;4.90;;;;;;;7.67;100.00;100139.59;5263392;28;20479;-67
2023/03/25 08:07:02;;;;;;;13.93;3.67;;;;;;;7.91;100.00;100127.22;5262601;28;20041;-67
2023/03/25 08:09:34;;;;;;;17.10;4.20;;;;;;;8.24;99.14;100137.16;5262649;28;20449;-68
2023/03/25 08:12:07;;;;;;;17.87;4.93;;;;;;;8.46;97.06;100137.78;5263107;28;20499;-69
2023/03/25 08:14:39;;;;;;;14.43;3.60;;;;;;;8.73;96.25;100128.69;5262552;28;20435;-68
2023/03/25 08:17:10;;;;;;;19.60;4.93;;;;;;;8.75;94.38;100145.13;5262778;28;20021;-68
2023/03/25 08:19:41;;;;;;;13.87;3.53;;;;;;;8.81;93.89;100154.56;5262616;28;20119;-68
2023/03/25 08:22:13;;;;;;;13.67;3.83;;;;;;;8.89;95.40;100158.75;5261573;28;20048;-68
2023/03/25 08:24:44;;;;;;;12.83;4.07;;;;;;;8.68;96.10;100156.50;5262465;28;20031;-68
2023/03/25 08:27:16;;;;;;;14.93;4.27;;;;;;;8.36;98.65;100169.03;5262326;28;20059;-68
2023/03/25 08:29:55;;;;;;;11.43;3.53;;;;;;;8.28;100.00;100162.22;5262413;28;20072;-68
2023/03/25 08:32:27;;;;;;;17.05;4.70;;;;;;;8.06;100.00;100169.44;5244741;28;20075;-68
2023/03/25 08:34:58;;;;;;;17.08;5.95;;;;;;;7.88;100.00;100176.56;5262321;28;20029;-67
2023/03/25 08:37:34;;;;;;;21.27;5.30;;;;;;;7.69;100.00;100170.69;5262220;28;20095;-67
2023/03/25 08:40:09;;;;;;;18.05;4.38;;;;;;;7.51;100.00;100176.94;5262676;28;20373;-67
2023/03/25 08:42:41;;;;;;;18.50;4.80;;;;;;;7.47;100.00;100168.34;5262767;28;20025;-69
2023/03/25 08:45:14;;;;;;;26.97;7.00;;;;;;;7.53;100.00;100172.59;5262818;28;20377;-69
2023/03/25 08:47:45;;;;;;;16.25;4.60;;;;;;;7.65;100.00;100174.22;5263480;28;20064;-68
2023/03/25 08:50:17;;;;;;;16.40;4.07;;;;;;;7.65;100.00;100169.03;5262930;28;20060;-68
2023/03/25 08:52:48;;;;;;;26.50;6.63;;;;;;;7.73;100.00;100161.13;5262609;28;20056;-69
2023/03/25 08:55:19;;;;;;;20.97;6.30;;;;;;;7.87;100.00;100161.84;5261255;28;20033;-69
2023/03/25 08:57:51;;;;;;;21.90;4.67;;;;;;;8.04;100.00;100177.22;5265018;28;20021;-68
2023/03/25 09:00:24;;;;;;;17.60;4.40;;;;;;;8.14;100.00;100154.59;5266607;28;20044;-69
2023/03/25 09:02:57;;;;;;;;;;;;;;;8.14;100.00;100170.19;5266271;28;20056;-67
2023/03/25 09:05:29;;;;;;;24.00;6.65;;;;;;;8.10;100.00;100166.78;5265878;28;19919;-68
2023/03/25 09:08:00;;;;;;;25.13;4.73;;;;;;;8.47;100.00;100171.50;5265919;28;20029;-67
2023/03/25 09:10:32;;;;;;;17.43;5.50;;;;;;;8.67;100.00;100175.56;5266359;28;20068;-68
2023/03/25 09:13:03;;;;;;;18.07;4.50;;;;;;;9.16;100.00;100166.13;5265894;28;20033;-68
2023/03/25 09:15:35;;;;;;;17.63;5.57;;;;;;;10.06;100.00;100165.31;5265480;28;20036;-69
2023/03/25 09:18:07;;;;;;;14.88;4.13;;;;;;;10.03;94.00;100169.72;5265821;28;20082;-68
2023/03/25 09:20:40;;;;;;;15.63;5.03;;;;;;;9.87;95.31;100160.50;5266228;28;20457;-69
2023/03/25 09:23:11;;;;;;;12.90;5.03;;;;;;;10.10;93.24;100178.25;5247882;28;20287;-68
2023/03/25 09:25:45;;;;;;;18.77;5.80;;;;;;;10.66;92.58;100177.06;5264324;28;20041;-68
2023/03/25 09:28:16;;;;;;;21.98;5.28;;;;;;;10.79;90.06;100167.22;5265450;28;20033;-68
2023/03/25 09:30:47;;;;;;;16.77;5.03;;;;;;;11.16;88.27;100159.38;5265790;28;20036;-68
2023/03/25 09:33:19;;;;;;;16.43;5.20;;;;;;;10.95;85.65;100184.22;5265640;28;20040;-68
2023/03/25 09:35:50;;;;;;;18.03;5.97;;;;;;;11.00;86.46;100176.31;5230558;28;20058;-68
2023/03/25 09:38:22;;;;;;;18.33;5.27;;;;;;;11.27;86.70;100183.44;5265075;28;20025;-68
2023/03/25 09:40:53;;;;;;;16.93;5.97;;;;;;;12.02;84.23;100179.72;5265203;28;20029;-68
2023/03/25 09:44:03;;;;;;;16.97;5.63;;;;;;;12.26;80.50;100193.00;5265290;28;20044;-68
2023/03/25 09:46:37;;;;;;;23.10;5.45;;;;;;;11.66;80.63;100149.34;5265660;28;20041;-67
2023/03/25 09:49:22;;;;;;;11.45;3.92;;;;;;;11.04;83.25;100196.19;5265383;28;20033;-68
2023/03/25 09:51:54;;;;;;;13.60;4.03;;;;;;;10.99;84.17;100187.63;5265556;28;20112;-68
2023/03/25 09:54:32;;;;;;;18.80;4.13;;;;;;;11.33;81.67;100177.19;5265333;28;20380;-68
2023/03/25 09:57:10;;;;;;;12.20;4.20;;;;;;;11.76;79.94;100196.09;5265201;28;20028;-68
2023/03/25 09:59:48;;;;;;;21.58;5.10;;;;;;;12.19;78.63;100201.00;5264945;28;20468;-69
2023/03/25 10:02:34;;;;;;;18.63;5.13;;;;;;;12.30;78.73;100184.13;5264561;28;20060;-68
2023/03/25 10:05:34;;;;;;;15.90;3.75;;;;;;;12.80;74.87;100213.16;5247310;28;20121;-69
2023/03/25 10:08:26;;;;;;;16.50;4.25;;;;;;;12.22;77.26;100200.91;5264731;28;20025;-68
2023/03/25 10:11:21;;;;;;;17.27;5.53;;;;;;;11.57;79.75;100196.56;5265131;28;20091;-68
2023/03/25 10:14:18;;;;;;;15.50;4.50;;;;;;;12.55;78.56;100184.28;5265327;28;20573;-67
2023/03/25 10:17:19;;;;;;;18.45;5.13;;;;;;;13.04;73.54;100174.88;5264492;28;20125;-68
2023/03/25 10:20:17;;;;;;;16.92;5.22;;;;;;;12.42;73.76;100185.56;5265273;28;20029;-68
2023/03/25 10:23:20;;;;;;;19.15;6.13;;;;;;;12.45;74.41;100180.25;5265137;28;20117;-67
2023/03/25 10:25:58;;;;;;;17.52;4.35;;;;;;;12.20;74.17;100194.00;5246792;28;20100;-67
2023/03/25 10:28:38;;;;;;;24.92;7.18;;;;;;;11.90;76.05;100185.25;5264233;28;20025;-67
2023/03/25 10:31:18;;;;;;;16.85;4.95;;;;;;;11.94;77.66;100177.31;5263981;28;20033;-68
2023/03/25 10:33:56;;;;;;;21.05;6.35;;;;;;;11.01;79.19;100199.72;5264535;28;20033;-68
2023/03/25 10:36:35;;;;;;;20.55;5.15;;;;;;;11.09;78.41;100192.56;5264071;28;20025;-68
2023/03/25 10:39:17;;;;;;;18.58;4.93;;;;;;;11.20;77.10;100200.13;5263084;28;20032;-67
2023/03/25 10:42:02;;;;;;;14.75;4.53;;;;;;;11.32;74.71;100189.38;5264173;28;20078;-68
2023/03/25 10:44:33;;;;;;;16.60;5.25;;;;;;;12.15;72.79;100180.22;5264074;28;20460;-69
2023/03/25 10:47:11;;;;;;;17.47;4.30;;;;;;;12.55;69.87;100192.97;5263881;28;20098;-69
2023/03/25 10:49:45;;;;;;;16.67;4.93;;;;;;;13.64;67.08;100198.22;5246880;28;20037;-69
2023/03/25 10:52:17;;;;;;;17.73;5.95;;;;;;;12.84;65.64;100201.66;5263626;28;20079;-67
2023/03/25 10:54:52;;;;;;;15.82;5.18;;;;;;;13.03;64.25;100211.56;5263744;28;20064;-67
2023/03/25 10:57:27;;;;;;;17.30;4.50;;;;;;;12.63;64.71;100197.97;5263572;28;20033;-69
2023/03/25 11:00:17;;;;;;;15.60;5.13;;;;;;;12.93;64.92;100184.84;5264056;28;20029;-68
2023/03/25 11:02:50;;;;;;;21.90;5.68;;;;;;;13.23;61.47;100210.91;5263556;28;20053;-68
2023/03/25 11:05:26;;;;;;;15.20;4.15;;;;;;;12.62;60.44;100205.84;5263915;28;20372;-68
2023/03/25 11:08:04;;;;;;;16.48;3.70;;;;;;;13.15;61.59;100195.44;5263879;28;20067;-68
2023/03/25 11:10:35;;;;;;;13.02;4.22;;;;;;;12.30;61.70;100210.28;5263431;28;20045;-68
2023/03/25 11:13:13;;;;;;;13.80;4.50;;;;;;;12.32;62.36;100217.19;5263082;28;20512;-68
2023/03/25 11:15:46;;;;;;;14.55;3.60;;;;;;;12.35;59.95;100197.97;5263368;28;20167;-67
2023/03/25 11:18:28;;;;;;;13.05;3.05;;;;;;;12.14;59.79;100225.53;5245522;28;20033;-69
2023/03/25 11:21:03;;;;;;;9.38;3.33;;;;;;;12.39;58.25;100220.47;5263082;28;20032;-69
2023/03/25 11:23:47;;;;;;;17.02;3.47;;;;;;;12.51;57.83;100219.25;5263895;28;20036;-68
2023/03/25 11:26:25;;;;;;;10.88;2.95;;;;;;;12.30;58.73;100218.13;5263214;28;20029;-69
2023/03/25 11:29:13;;;;;;;14.05;3.70;;;;;;;12.56;58.72;100209.53;5262947;28;20389;-68
2023/03/25 11:31:55;;;;;;;14.52;4.03;;;;;;;12.38;59.13;100229.19;5263303;28;20082;-68
2023/03/25 11:34:28;;;;;;;13.00;3.55;;;;;;;12.64;59.87;100215.38;5263116;28;20025;-69
2023/03/25 11:37:21;;;;;;;12.35;3.67;;;;;;;13.05;57.47;100230.69;5263163;28;20044;-69
2023/03/25 11:39:54;;;;;;;10.95;3.38;;;;;;;12.86;57.48;100238.25;5263092;28;20096;-69
2023/03/25 11:42:41;;;;;;;11.02;3.25;;;;;;;12.36;58.39;100217.94;5263220;28;20036;-69
2023/03/25 11:45:38;;;;;;;14.68;3.95;;;;;;;12.53;58.89;100204.38;5263004;28;20095;-69
2023/03/25 11:48:31;;;;;;;20.08;4.40;;;;;;;11.88;60.26;100227.06;5260509;28;20045;-69
2023/03/25 11:51:05;;;;;;;13.67;4.37;;;;;;;11.75;60.98;100229.19;5262322;28;20068;-68
2023/03/25 11:53:42;;;;;;;14.20;3.60;;;;;;;11.68;62.24;100218.03;5262808;28;20467;-68
2023/03/25 11:56:22;;;;;;;13.63;3.20;;;;;;;11.63;62.63;100212.06;5261933;28;20071;-68
2023/03/25 11:59:00;;;;;;;13.23;3.60;;;;;;;11.67;62.65;100218.94;5263620;28;20029;-69
2023/03/25 12:01:45;;;;;;;20.10;4.60;;;;;;;11.77;68.88;100223.91;5263198;28;20028;-68
2023/03/25 12:04:16;;;;;;;14.23;4.70;;;;;;;11.19;71.96;100216.69;5263430;28;20053;-68